Time;durP1;ratioP1;P1;durP2;ratioP2;P2;SDS_P1;SDS_P2;PMS_P1;PMS_P2;Temp;Humidity;BMP_temperature;BMP_pressure;BME280_temperature;BME280_humidity;BME280_pressure;Samples;Min_cycle;Max_cycle;Signal;HPM_P1;HPM_P2
2023/04/12 00:00:32;;;;;;;23.10;13.85;;;;;;;14.11;30.47;99476.06;4934639;29;20146;-72
2023/04/12 00:03:03;;;;;;;23.00;13.73;;;;;;;14.42;30.31;99478.56;4933619;29;20113;-72
2023/04/12 00:05:29;;;;;;;22.27;13.82;;;;;;;14.07;30.17;99474.75;4934258;29;20062;-73
2023/04/12 00:07:55;;;;;;;24.23;13.93;;;;;;;14.12;30.14;99471.53;4934466;29;20047;-72
2023/04/12 00:10:21;;;;;;;23.05;13.35;;;;;;;14.03;30.27;99480.66;4920009;29;20063;-73
2023/04/12 00:12:48;;;;;;;25.63;14.82;;;;;;;14.03;30.55;99473.50;4937082;29;20065;-71
2023/04/12 00:15:14;;;;;;;26.30;14.27;;;;;;;14.15;30.18;99476.50;4920758;29;20496;-71
2023/04/12 00:17:40;;;;;;;27.23;14.82;;;;;;;14.16;30.22;99473.66;4920817;29;20576;-71
2023/04/12 00:20:15;;;;;;;25.58;14.70;;;;;;;14.23;30.11;99476.41;4898898;29;20055;-72
2023/04/12 00:22:42;;;;;;;27.15;14.55;;;;;;;14.21;30.12;99473.94;4908429;28;20514;-72
2023/04/12 00:25:08;;;;;;;25.63;14.90;;;;;;;14.23;29.92;99474.59;4975249;28;20062;-72
2023/04/12 00:27:36;;;;;;;23.83;15.05;;;;;;;14.32;30.14;99478.84;4975246;28;20066;-72
2023/04/12 00:30:02;;;;;;;26.08;14.65;;;;;;;14.15;29.99;99481.84;4943059;28;20153;-72
2023/04/12 00:32:29;;;;;;;23.35;13.88;;;;;;;14.07;30.03;99473.97;4943364;28;20069;-72
2023/04/12 00:34:57;;;;;;;22.05;14.82;;;;;;;14.29;30.01;99476.56;4942581;28;20050;-73
2023/04/12 00:37:23;;;;;;;25.08;14.35;;;;;;;14.08;30.11;99475.59;4974833;28;20042;-73
2023/04/12 00:39:48;;;;;;;26.30;14.20;;;;;;;14.06;29.91;99478.47;4974800;28;20162;-73
2023/04/12 00:42:16;;;;;;;27.73;14.63;;;;;;;14.07;30.00;99473.97;4958687;28;20049;-73
2023/04/12 00:44:42;;;;;;;23.05;13.70;;;;;;;14.12;29.90;99467.03;4959435;28;20589;-73
2023/04/12 00:47:08;;;;;;;20.75;13.93;;;;;;;14.19;29.67;99483.16;4961081;28;20169;-73
2023/04/12 00:49:34;;;;;;;22.20;13.88;;;;;;;14.13;29.94;99475.88;4975997;28;20112;-72
2023/04/12 00:52:04;;;;;;;22.90;14.10;;;;;;;14.26;29.84;99476.91;4975610;28;20057;-72
2023/04/12 00:54:31;;;;;;;25.55;14.00;;;;;;;14.22;29.80;99474.78;4994261;28;20053;-73
2023/04/12 00:56:57;;;;;;;25.80;13.77;;;;;;;14.19;29.88;99469.81;4961944;28;20048;-72
2023/04/12 00:59:23;;;;;;;23.00;13.10;;;;;;;14.18;29.82;99468.13;4961852;28;20156;-72
2023/04/12 01:01:49;;;;;;;26.23;13.50;;;;;;;14.11;29.73;99464.56;4993934;28;20500;-72
2023/04/12 01:04:17;;;;;;;24.98;13.70;;;;;;;14.22;29.34;99462.22;4978184;28;20038;-72
2023/04/12 01:07:08;;;;;;;24.42;13.25;;;;;;;14.47;29.56;99466.28;4993956;28;20524;-74
2023/04/12 01:09:55;;;;;;;22.88;13.25;;;;;;;14.55;29.39;99455.50;5010376;28;20042;-73
2023/04/12 01:12:45;;;;;;;26.48;13.65;;;;;;;14.03;29.51;99445.94;5010291;28;20156;-72
2023/04/12 01:15:12;;;;;;;;;;;;;;;14.60;29.39;99462.97;4920230;29;20051;-78
2023/04/12 01:18:01;;;;;;;23.02;13.20;;;;;;;14.45;29.80;99448.81;4958082;28;20089;-72
2023/04/12 01:20:56;;;;;;;25.30;13.02;;;;;;;14.40;29.67;99449.38;5010262;28;20042;-72
2023/04/12 01:24:01;;;;;;;23.33;13.57;;;;;;;14.53;29.68;99454.06;4971454;28;20041;-73
2023/04/12 01:26:47;;;;;;;22.77;13.00;;;;;;;14.44;29.86;99447.97;4994676;28;20085;-72
2023/04/12 01:29:18;;;;;;;23.48;13.20;;;;;;;14.30;29.80;99446.13;4994799;28;20042;-79
2023/04/12 01:32:06;;;;;;;22.15;13.10;;;;;;;14.39;29.57;99446.88;4994993;28;20044;-72
2023/04/12 01:34:34;;;;;;;26.20;12.88;;;;;;;14.16;29.67;99446.94;4994598;28;20137;-72
2023/04/12 01:37:01;;;;;;;24.75;13.43;;;;;;;14.10;29.77;99430.84;5011094;28;20046;-72
2023/04/12 01:39:31;;;;;;;24.42;13.73;;;;;;;14.15;29.71;99441.78;4978418;28;20111;-72
2023/04/12 01:41:57;;;;;;;24.27;13.47;;;;;;;13.98;29.88;99437.66;4995006;28;20041;-72
2023/04/12 01:44:23;;;;;;;22.65;12.35;;;;;;;13.93;29.80;99442.75;4994327;28;20483;-72
2023/04/12 01:46:49;;;;;;;24.60;13.15;;;;;;;13.98;29.83;99440.31;4994503;28;20049;-73
2023/04/12 01:49:18;;;;;;;21.80;13.15;;;;;;;14.02;29.81;99422.94;4994435;28;20045;-71
2023/04/12 01:51:50;;;;;;;22.90;13.52;;;;;;;14.19;29.91;99433.22;5010903;28;20096;-79
2023/04/12 01:54:26;;;;;;;28.08;13.95;;;;;;;14.23;29.90;99442.53;5010341;28;20038;-73
2023/04/12 01:56:56;;;;;;;24.58;13.65;;;;;;;14.09;30.06;99435.34;4962108;28;20099;-73
2023/04/12 01:59:26;;;;;;;21.40;13.60;;;;;;;14.01;30.02;99435.44;4990124;28;20108;-73
2023/04/12 02:01:52;;;;;;;21.90;13.48;;;;;;;13.80;30.25;99432.69;4926251;28;20120;-73
2023/04/12 02:04:20;;;;;;;23.25;13.75;;;;;;;13.99;30.15;99431.31;4957771;28;20500;-72
2023/04/12 02:06:47;;;;;;;25.83;14.15;;;;;;;13.73;30.31;99430.94;4926060;28;20041;-73
2023/04/12 02:09:12;;;;;;;23.92;13.50;;;;;;;13.58;30.28;99428.25;4958138;28;20065;-72
2023/04/12 02:11:38;;;;;;;21.98;13.63;;;;;;;13.61;30.41;99435.06;4941787;28;20042;-73
2023/04/12 02:14:05;;;;;;;23.83;14.18;;;;;;;13.58;30.43;99425.56;4938537;28;20051;-73
2023/04/12 02:16:31;;;;;;;22.10;13.60;;;;;;;13.61;30.42;99432.41;4954310;28;20066;-72
2023/04/12 02:18:57;;;;;;;20.75;13.65;;;;;;;13.57;30.37;99432.78;4954517;28;20134;-72
2023/04/12 02:21:25;;;;;;;22.55;13.88;;;;;;;13.59;30.56;99428.06;4970518;28;20522;-73
2023/04/12 02:23:51;;;;;;;24.13;13.52;;;;;;;13.51;30.40;99427.31;4954326;28;20109;-72
2023/04/12 02:26:17;;;;;;;21.48;13.70;;;;;;;13.53;30.57;99422.63;4939784;28;20066;-73
2023/04/12 02:28:46;;;;;;;24.98;13.93;;;;;;;13.47;30.52;99423.34;4957654;28;20046;-74
2023/04/12 02:31:17;;;;;;;20.83;13.63;;;;;;;13.65;30.85;99425.69;4991393;28;20538;-73
2023/04/12 02:33:46;;;;;;;23.83;13.85;;;;;;;13.47;30.73;99428.69;4980486;28;20049;-73
2023/04/12 02:36:12;;;;;;;23.13;13.10;;;;;;;13.41;30.90;99424.91;4957864;28;20141;-71
2023/04/12 02:38:38;;;;;;;22.70;13.85;;;;;;;13.41;30.73;99422.25;4941815;28;20090;-71
2023/04/12 02:41:06;;;;;;;25.08;13.98;;;;;;;13.42;30.44;99423.09;4926027;28;20825;-74
2023/04/12 02:43:33;;;;;;;18.70;13.18;;;;;;;13.45;30.34;99426.19;4925952;28;20063;-72
2023/04/12 02:46:03;;;;;;;23.83;13.43;;;;;;;13.44;30.31;99427.22;4926013;28;20477;-72
2023/04/12 02:48:35;;;;;;;21.77;14.20;;;;;;;13.47;30.42;99421.50;4941456;28;20138;-73
2023/04/12 02:51:02;;;;;;;20.95;13.93;;;;;;;13.49;30.36;99419.50;4925788;28;20482;-76
2023/04/12 02:53:31;;;;;;;28.23;14.25;;;;;;;13.50;30.44;99431.81;4941450;28;20043;-73
2023/04/12 02:56:20;;;;;;;25.60;14.55;;;;;;;13.64;30.25;99422.19;4948277;28;20061;-74
2023/04/12 02:58:51;;;;;;;25.75;14.43;;;;;;;13.57;30.51;99438.09;4953356;28;20046;-74
2023/04/12 03:01:32;;;;;;;42.17;17.17;;;;;;;13.48;30.35;99425.03;4941018;28;20063;-75
2023/04/12 03:04:18;;;;;;;25.15;16.60;;;;;;;13.66;30.41;99443.34;4958480;28;20103;-75
2023/04/12 03:06:54;;;;;;;29.08;16.83;;;;;;;13.97;30.52;99439.50;4955134;28;20049;-83
2023/04/12 03:09:31;;;;;;;30.85;17.73;;;;;;;13.75;30.28;99436.91;4994286;28;20054;-76
2023/04/12 03:11:57;;;;;;;36.90;18.52;;;;;;;13.76;30.63;99435.91;4977935;28;20160;-73
2023/04/12 03:14:24;;;;;;;32.33;18.08;;;;;;;13.81;30.41;99441.53;4962036;28;20421;-72
2023/04/12 03:16:53;;;;;;;33.50;19.05;;;;;;;13.98;30.57;99441.16;4954679;28;20055;-79
2023/04/12 03:19:21;;;;;;;38.85;20.48;;;;;;;13.86;30.51;99444.47;4939221;28;20145;-75
2023/04/12 03:21:53;;;;;;;46.75;21.23;;;;;;;13.92;31.14;99447.22;4945781;28;20093;-75
2023/04/12 03:24:20;;;;;;;32.67;18.92;;;;;;;13.97;30.62;99450.19;4928093;28;20101;-77
2023/04/12 03:26:46;;;;;;;43.38;19.75;;;;;;;14.05;30.36;99449.28;4930294;28;20058;-80
2023/04/12 03:29:17;;;;;;;36.97;19.17;;;;;;;14.09;30.07;99454.06;4945461;28;20050;-78
2023/04/12 03:31:46;;;;;;;43.25;21.40;;;;;;;14.11;30.99;99440.50;4927788;28;20086;-79
2023/04/12 03:34:12;;;;;;;36.10;19.75;;;;;;;14.19;29.98;99457.25;4934081;28;20137;-77
2023/04/12 03:36:43;;;;;;;42.40;21.65;;;;;;;14.22;30.29;99454.22;4945967;28;20483;-79
2023/04/12 03:39:36;;;;;;;35.30;19.90;;;;;;;14.25;29.95;99456.56;4960723;28;20136;-77
2023/04/12 03:42:06;;;;;;;43.30;17.88;;;;;;;14.30;29.80;99450.69;4977758;28;20506;-78
2023/04/12 03:44:35;;;;;;;31.55;16.25;;;;;;;14.49;29.65;99450.91;4976823;28;20073;-77
2023/04/12 03:47:06;;;;;;;25.88;16.77;;;;;;;14.40;29.61;99459.22;4955764;28;20050;-77
2023/04/12 03:49:37;;;;;;;35.45;18.38;;;;;;;14.46;29.79;99464.66;4943473;28;20053;-76
2023/04/12 03:52:06;;;;;;;30.17;17.33;;;;;;;14.65;29.64;99460.56;5014065;28;20093;-76
2023/04/12 03:54:32;;;;;;;32.30;18.40;;;;;;;14.55;29.55;99462.69;4987811;28;20049;-77
2023/04/12 03:57:03;;;;;;;33.92;17.33;;;;;;;14.63;29.88;99457.22;5024963;28;20100;-77
2023/04/12 03:59:50;;;;;;;40.13;19.08;;;;;;;14.72;29.75;99466.78;5009986;28;20112;-71
2023/04/12 04:02:21;;;;;;;43.88;19.52;;;;;;;14.78;30.13;99474.06;5011079;28;20519;-72
2023/04/12 04:04:50;;;;;;;45.30;20.45;;;;;;;14.92;30.51;99476.69;4978839;28;20052;-72
2023/04/12 04:07:24;;;;;;;37.35;20.35;;;;;;;14.87;30.14;99473.75;5010785;28;20053;-79
2023/04/12 04:09:53;;;;;;;34.03;19.80;;;;;;;15.02;29.96;99473.72;5012390;28;20054;-78
2023/04/12 04:12:19;;;;;;;43.22;21.48;;;;;;;14.91;29.86;99477.69;5002536;28;20058;-72
2023/04/12 04:14:48;;;;;;;41.20;21.40;;;;;;;14.96;29.97;99474.50;5006656;28;20514;-79
2023/04/12 04:17:25;;;;;;;48.08;22.20;;;;;;;15.05;30.35;99476.00;5010946;28;20033;-77
2023/04/12 04:19:52;;;;;;;48.40;21.35;;;;;;;15.09;29.70;99474.59;5011010;28;20099;-78
2023/04/12 04:22:22;;;;;;;58.33;23.45;;;;;;;15.15;30.21;99471.16;4998721;28;20038;-78
2023/04/12 04:24:52;;;;;;;47.22;23.08;;;;;;;15.17;30.00;99463.78;5023707;28;20042;-76
2023/04/12 04:27:19;;;;;;;48.20;22.92;;;;;;;15.20;29.88;99474.09;4989392;28;20076;-77
2023/04/12 04:29:51;;;;;;;51.03;22.10;;;;;;;15.55;29.84;99462.50;4999597;28;20061;-76
2023/04/12 04:32:18;;;;;;;55.80;24.00;;;;;;;15.38;30.12;99471.81;5011616;28;20058;-77
2023/04/12 04:34:45;;;;;;;55.70;24.58;;;;;;;15.54;30.35;99468.88;5010873;28;20465;-77
2023/04/12 04:37:17;;;;;;;;;;;;;;;16.01;29.62;99479.72;4979644;28;20046;-74
2023/04/12 04:39:45;;;;;;;55.80;25.20;;;;;;;15.59;29.84;99479.81;5028702;28;19917;-76
2023/04/12 04:42:11;;;;;;;62.65;26.92;;;;;;;15.64;30.61;99477.41;4962992;28;20046;-79
2023/04/12 04:45:02;;;;;;;61.03;27.67;;;;;;;15.73;30.69;99481.59;4994684;28;20052;-79
2023/04/12 04:47:30;;;;;;;62.25;26.05;;;;;;;15.72;29.93;99473.75;5010750;28;20069;-75
2023/04/12 04:49:58;;;;;;;76.78;27.75;;;;;;;15.98;30.34;99482.81;5011795;28;20479;-76
2023/04/12 04:52:25;;;;;;;55.67;24.60;;;;;;;15.82;29.94;99472.38;4997964;28;20045;-75
2023/04/12 04:55:09;;;;;;;58.67;26.88;;;;;;;16.02;30.33;99462.63;5004148;28;20053;-78
2023/04/12 04:57:40;;;;;;;66.93;27.85;;;;;;;16.23;30.19;99469.75;5014010;28;20099;-76
2023/04/12 05:00:10;;;;;;;72.20;27.83;;;;;;;16.34;29.64;99474.56;5029440;28;20045;-77
2023/04/12 05:02:38;;;;;;;69.13;29.75;;;;;;;16.22;29.76;99476.97;5029327;28;20053;-78
2023/04/12 05:05:06;;;;;;;89.43;29.92;;;;;;;16.39;29.27;99469.44;5065282;28;20048;-76
2023/04/12 05:07:32;;;;;;;79.25;28.20;;;;;;;16.37;29.16;99491.09;5047200;28;20073;-77
2023/04/12 05:09:58;;;;;;;70.38;26.25;;;;;;;16.45;28.75;99474.03;5030728;28;20380;-75
2023/04/12 05:12:24;;;;;;;60.58;26.70;;;;;;;16.44;28.75;99477.72;5029605;28;20053;-77
2023/04/12 05:14:54;;;;;;;67.80;26.83;;;;;;;16.62;30.12;99480.72;5029955;28;20072;-77
2023/04/12 05:17:20;;;;;;;64.95;24.58;;;;;;;16.78;30.47;99478.50;5031119;28;20108;-77
2023/04/12 05:19:46;;;;;;;67.82;25.55;;;;;;;17.03;28.73;99473.41;4996886;28;20037;-77
2023/04/12 05:22:13;;;;;;;65.57;24.63;;;;;;;17.07;28.32;99485.38;5030996;28;20045;-76
2023/04/12 05:24:39;;;;;;;67.65;24.73;;;;;;;17.28;28.36;99485.22;5029996;28;20430;-79
2023/04/12 05:27:05;;;;;;;73.15;26.13;;;;;;;17.35;28.40;99483.38;5029514;28;20131;-76
2023/04/12 05:29:31;;;;;;;57.33;23.83;;;;;;;17.52;27.95;99487.34;5013260;28;20053;-79
2023/04/12 05:31:58;;;;;;;64.32;21.20;;;;;;;17.79;27.85;99488.19;5013597;28;20049;-78
2023/04/12 05:34:25;;;;;;;51.97;20.75;;;;;;;17.79;26.58;99486.28;4997530;28;20046;-76
2023/04/12 05:36:53;;;;;;;48.28;18.42;;;;;;;17.87;25.39;99487.94;5029895;28;20446;-76
2023/04/12 05:39:20;;;;;;;56.92;21.05;;;;;;;17.92;25.72;99493.53;5029660;28;20091;-78
2023/04/12 05:41:46;;;;;;;51.60;17.65;;;;;;;18.05;25.36;99494.31;4980523;28;20590;-76
2023/04/12 05:44:12;;;;;;;77.20;25.10;;;;;;;18.24;26.21;99498.84;4980586;28;20057;-76
2023/04/12 05:46:38;;;;;;;57.20;21.40;;;;;;;18.41;26.11;99494.72;5045267;28;20061;-77
2023/04/12 05:49:04;;;;;;;60.20;21.27;;;;;;;18.58;25.45;99497.75;5013009;28;20485;-73
2023/04/12 05:51:30;;;;;;;58.40;21.25;;;;;;;18.71;24.90;99504.94;4996838;28;20084;-73
2023/04/12 05:53:56;;;;;;;46.28;17.90;;;;;;;18.76;24.38;99499.75;4980717;28;20045;-75
2023/04/12 05:56:26;;;;;;;58.60;19.88;;;;;;;18.89;24.65;99497.00;4997245;28;20111;-78
2023/04/12 05:58:51;;;;;;;53.55;19.55;;;;;;;19.00;24.80;99507.09;5013532;28;20065;-76
2023/04/12 06:01:18;;;;;;;54.97;19.75;;;;;;;19.18;24.70;99499.94;5031456;28;20088;-73
2023/04/12 06:03:45;;;;;;;48.17;18.00;;;;;;;19.40;23.86;99500.47;5016592;28;20046;-74
2023/04/12 06:06:12;;;;;;;50.90;17.42;;;;;;;19.20;23.84;99502.41;5001132;28;20049;-75
2023/04/12 06:08:39;;;;;;;38.92;13.80;;;;;;;19.25;23.48;99506.09;5016782;28;20080;-74
2023/04/12 06:11:08;;;;;;;41.65;15.07;;;;;;;19.49;23.56;99504.53;5000586;28;20056;-74
2023/04/12 06:13:34;;;;;;;46.65;13.00;;;;;;;19.49;22.73;99507.22;5016260;28;20053;-74
2023/04/12 06:16:01;;;;;;;38.97;13.25;;;;;;;19.65;23.30;99504.00;5016775;28;20483;-75
2023/04/12 06:18:26;;;;;;;33.97;12.60;;;;;;;19.75;22.89;99502.47;5016621;28;20052;-74
2023/04/12 06:20:53;;;;;;;30.80;14.07;;;;;;;19.99;22.71;99495.41;5001056;28;20076;-71
2023/04/12 06:23:19;;;;;;;29.80;12.88;;;;;;;20.16;22.61;99495.69;5033256;28;20073;-75
2023/04/12 06:25:50;;;;;;;40.80;13.60;;;;;;;20.68;22.33;99495.91;5016144;28;20049;-74
2023/04/12 06:28:15;;;;;;;36.75;12.45;;;;;;;20.55;22.01;99490.69;5015877;28;20482;-75
2023/04/12 06:30:45;;;;;;;35.45;12.38;;;;;;;20.72;22.12;99491.75;5016154;28;20149;-75
2023/04/12 06:33:11;;;;;;;24.73;12.40;;;;;;;20.88;21.56;99490.28;5016647;28;20123;-74
2023/04/12 06:35:37;;;;;;;32.10;11.75;;;;;;;20.93;21.37;99493.94;4999875;28;20049;-75
2023/04/12 06:38:02;;;;;;;32.38;11.63;;;;;;;21.03;21.44;99490.75;4983654;28;20046;-74
2023/04/12 06:40:29;;;;;;;27.17;12.02;;;;;;;21.17;21.57;99490.31;5032971;28;20056;-74
2023/04/12 06:42:55;;;;;;;34.28;11.07;;;;;;;21.27;21.46;99489.75;4984482;28;20103;-74
2023/04/12 06:45:22;;;;;;;30.10;10.88;;;;;;;21.55;21.33;99488.09;5001452;28;20060;-75
2023/04/12 06:47:50;;;;;;;31.70;11.35;;;;;;;21.64;21.24;99489.41;5017099;28;20037;-72
2023/04/12 06:50:17;;;;;;;24.25;8.95;;;;;;;21.78;20.27;99498.13;5017567;28;20045;-74
2023/04/12 06:52:42;;;;;;;23.20;8.73;;;;;;;21.91;19.93;99502.50;5019011;28;20045;-76
2023/04/12 06:55:09;;;;;;;24.10;7.85;;;;;;;21.51;19.85;99491.50;5036653;28;20060;-77
2023/04/12 06:57:34;;;;;;;15.50;7.80;;;;;;;21.49;20.19;99489.03;5019819;28;20144;-77
2023/04/12 07:00:01;;;;;;;17.38;8.35;;;;;;;21.59;20.18;99488.44;5001520;28;20051;-75
2023/04/12 07:02:26;;;;;;;16.75;7.75;;;;;;;21.52;20.05;99487.72;5000458;28;20037;-74
2023/04/12 07:04:53;;;;;;;17.58;8.50;;;;;;;21.72;20.32;99485.53;5017984;28;20064;-76
2023/04/12 07:07:19;;;;;;;20.55;8.73;;;;;;;22.04;20.08;99492.28;5033416;28;20049;-76
2023/04/12 07:09:46;;;;;;;24.25;9.10;;;;;;;22.34;20.03;99474.00;4999436;28;20045;-76
2023/04/12 07:12:12;;;;;;;16.42;7.85;;;;;;;22.53;18.80;99480.97;5014655;28;20132;-75
2023/04/12 07:14:38;;;;;;;21.45;8.43;;;;;;;22.85;19.48;99478.63;4983276;28;20464;-74
2023/04/12 07:17:04;;;;;;;27.52;9.25;;;;;;;23.18;18.90;99479.56;4983465;28;20034;-80
2023/04/12 07:19:30;;;;;;;20.90;7.45;;;;;;;23.43;19.07;99478.41;4999190;28;20041;-74
2023/04/12 07:21:57;;;;;;;17.48;7.93;;;;;;;23.88;18.40;99487.31;5032018;28;20127;-72
2023/04/12 07:24:23;;;;;;;14.90;5.80;;;;;;;24.15;17.13;99481.00;4999420;28;20054;-73
2023/04/12 07:26:48;;;;;;;20.02;5.80;;;;;;;23.83;16.87;99484.50;4998714;28;20123;-73
2023/04/12 07:29:15;;;;;;;13.10;5.95;;;;;;;23.45;16.43;99479.78;4983005;28;20045;-74
2023/04/12 07:31:41;;;;;;;11.07;6.07;;;;;;;23.26;16.70;99479.19;4998724;28;20116;-73
2023/04/12 07:34:07;;;;;;;15.02;6.65;;;;;;;23.85;16.81;99479.69;4998988;28;20240;-73
2023/04/12 07:36:33;;;;;;;19.23;7.70;;;;;;;24.47;16.16;99473.00;5015008;28;20088;-72
2023/04/12 07:38:59;;;;;;;14.73;6.78;;;;;;;26.83;14.88;99489.56;4983467;28;20045;-72
2023/04/12 07:41:25;;;;;;;11.55;6.95;;;;;;;29.12;12.80;99480.78;5016168;28;20115;-73
2023/04/12 07:43:51;;;;;;;15.20;7.18;;;;;;;32.41;10.86;99474.34;4984340;28;20546;-73
2023/04/12 07:46:16;;;;;;;19.40;7.35;;;;;;;35.12;9.33;99480.66;5005106;28;20110;-74
2023/04/12 07:48:42;;;;;;;19.38;7.70;;;;;;;37.61;7.81;99482.34;5022062;28;20045;-73
2023/04/12 07:51:08;;;;;;;20.85;8.60;;;;;;;39.32;6.84;99478.38;5033139;28;20037;-74
2023/04/12 07:53:34;;;;;;;9.88;7.28;;;;;;;38.86;6.71;99473.31;4998729;28;20049;-73
2023/04/12 07:56:00;;;;;;;15.15;7.90;;;;;;;39.18;5.79;99484.28;4998833;28;20140;-73
2023/04/12 07:58:25;;;;;;;11.00;7.20;;;;;;;38.03;5.91;99476.41;4982610;28;20045;-73
2023/04/12 08:00:52;;;;;;;13.15;6.60;;;;;;;38.55;6.71;99466.38;4983017;28;20099;-74
2023/04/12 08:03:18;;;;;;;11.55;6.20;;;;;;;39.34;5.79;99464.91;5015421;28;20496;-75
2023/04/12 08:05:45;;;;;;;10.55;6.13;;;;;;;39.57;6.00;99475.19;4983086;28;20484;-74
2023/04/12 08:08:11;;;;;;;7.38;5.60;;;;;;;39.58;5.67;99462.09;4983886;28;20067;-74
2023/04/12 08:10:38;;;;;;;9.35;5.60;;;;;;;41.18;5.06;99452.81;4982508;28;20057;-74
2023/04/12 08:13:05;;;;;;;11.00;4.93;;;;;;;43.12;4.27;99446.88;4998099;28;20384;-74
2023/04/12 08:15:31;;;;;;;12.43;5.43;;;;;;;44.23;3.73;99457.88;4998854;28;20033;-74
2023/04/12 08:17:57;;;;;;;12.60;4.90;;;;;;;41.25;4.22;99458.53;5015548;28;20136;-74
2023/04/12 08:20:23;;;;;;;8.25;4.70;;;;;;;37.26;5.52;99454.09;4997999;28;20084;-74
2023/04/12 08:22:49;;;;;;;8.15;5.03;;;;;;;36.15;6.33;99451.03;5014052;28;20211;-74
2023/04/12 08:25:15;;;;;;;16.65;5.25;;;;;;;37.26;6.34;99431.13;4981447;28;20057;-74
2023/04/12 08:27:42;;;;;;;16.08;4.90;;;;;;;39.72;5.32;99437.47;4996891;28;20180;-74
2023/04/12 08:30:09;;;;;;;9.18;4.95;;;;;;;41.41;4.11;99448.91;4997727;28;20131;-75
2023/04/12 08:32:36;;;;;;;9.10;4.60;;;;;;;39.56;4.88;99450.50;4965085;28;20483;-74
2023/04/12 08:35:03;;;;;;;9.38;4.70;;;;;;;38.46;5.78;99429.56;4998234;28;20050;-74
2023/04/12 08:37:29;;;;;;;12.48;5.25;;;;;;;37.56;5.58;99422.38;4996919;28;20034;-74
2023/04/12 08:39:55;;;;;;;11.73;4.70;;;;;;;39.70;5.39;99423.94;4981101;28;20068;-75
2023/04/12 08:42:22;;;;;;;12.20;4.88;;;;;;;41.82;4.39;99433.44;4980769;28;20395;-75
2023/04/12 08:44:50;;;;;;;10.63;4.57;;;;;;;42.25;3.92;99426.69;4981012;28;20561;-75
2023/04/12 08:47:15;;;;;;;10.60;4.30;;;;;;;42.54;3.29;99440.78;4981143;28;20140;-75
2023/04/12 08:49:41;;;;;;;14.60;4.20;;;;;;;40.36;4.48;99429.72;4980783;28;20136;-75
2023/04/12 08:52:12;;;;;;;4.47;3.97;;;;;;;39.08;4.59;99422.84;4998448;28;20502;-75
2023/04/12 08:54:38;;;;;;;12.10;4.70;;;;;;;39.91;4.71;99423.72;4982131;28;20300;-75
2023/04/12 08:57:09;;;;;;;14.63;4.45;;;;;;;42.51;3.92;99413.59;4982363;28;20098;-74
2023/04/12 08:59:37;;;;;;;13.02;4.47;;;;;;;44.80;3.24;99419.94;4981453;28;20041;-76
2023/04/12 09:02:02;;;;;;;8.70;4.60;;;;;;;44.97;2.81;99424.06;4981388;28;20073;-74
2023/04/12 09:04:28;;;;;;;6.47;4.22;;;;;;;43.49;3.19;99417.03;4981556;28;20065;-75
2023/04/12 09:06:55;;;;;;;12.88;4.53;;;;;;;42.50;3.69;99398.03;4981724;28;20087;-75
2023/04/12 09:09:40;;;;;;;9.98;5.10;;;;;;;43.69;3.50;99401.69;4997566;28;20186;-74
2023/04/12 09:12:06;;;;;;;9.90;4.45;;;;;;;44.23;3.06;99418.66;4980613;28;20046;-74
2023/04/12 09:14:33;;;;;;;16.05;4.78;;;;;;;40.77;4.21;99386.53;4981129;28;20069;-74
2023/04/12 09:16:58;;;;;;;16.98;4.60;;;;;;;41.82;3.61;99399.16;4981278;28;20073;-73
2023/04/12 09:19:31;;;;;;;6.25;4.07;;;;;;;42.60;3.46;99393.75;5013899;28;20163;-74
2023/04/12 09:21:57;;;;;;;7.22;4.50;;;;;;;42.55;3.33;99385.72;4997846;28;20049;-74
2023/04/12 09:24:23;;;;;;;14.20;4.53;;;;;;;44.05;3.13;99386.91;4981535;28;20041;-74
2023/04/12 09:27:01;;;;;;;10.93;4.57;;;;;;;45.62;2.34;99371.50;4981028;28;20438;-74
2023/04/12 09:29:27;;;;;;;12.30;4.22;;;;;;;46.51;2.15;99384.47;5030126;28;20464;-74
2023/04/12 09:31:59;;;;;;;8.90;4.32;;;;;;;45.16;2.18;99409.78;4981005;28;20044;-75
2023/04/12 09:34:25;;;;;;;8.07;4.00;;;;;;;40.71;3.35;99390.78;5014006;28;20563;-75
2023/04/12 09:36:50;;;;;;;11.23;4.53;;;;;;;40.74;4.03;99365.81;5034059;28;20120;-80
2023/04/12 09:39:16;;;;;;;6.75;4.47;;;;;;;43.11;3.27;99359.44;4988504;28;20041;-80
2023/04/12 09:41:42;;;;;;;10.55;4.00;;;;;;;45.24;2.48;99380.56;4985169;28;20049;-79
2023/04/12 09:44:08;;;;;;;9.77;4.65;;;;;;;42.51;3.24;99376.47;4985157;28;20444;-74
2023/04/12 09:46:33;;;;;;;12.13;4.22;;;;;;;42.06;3.62;99356.97;5000483;28;20107;-76
2023/04/12 09:49:01;;;;;;;9.05;4.00;;;;;;;42.07;3.61;99356.59;5001015;28;20132;-75
2023/04/12 09:51:27;;;;;;;10.48;3.92;;;;;;;43.01;3.02;99356.47;5017152;28;20047;-77
2023/04/12 09:54:05;;;;;;;9.85;3.95;;;;;;;43.59;2.81;99359.59;5033573;28;20037;-76
2023/04/12 09:56:33;;;;;;;5.93;4.13;;;;;;;42.65;2.87;99371.91;5017436;28;20487;-74
2023/04/12 09:59:08;;;;;;;8.52;4.00;;;;;;;41.64;3.52;99355.00;4997180;28;20516;-74
2023/04/12 10:01:36;;;;;;;13.30;3.97;;;;;;;43.11;2.96;99350.22;4980478;28;20045;-75
2023/04/12 10:04:02;;;;;;;6.70;3.70;;;;;;;44.54;2.65;99358.50;4980859;28;20041;-72
2023/04/12 10:06:30;;;;;;;10.45;3.90;;;;;;;45.93;2.31;99349.09;4996588;28;20074;-75
2023/04/12 10:08:56;;;;;;;12.18;4.13;;;;;;;45.98;1.92;99325.44;4996754;28;20048;-73
2023/04/12 10:11:22;;;;;;;5.32;3.53;;;;;;;46.56;1.74;99348.34;4994315;28;20050;-74
2023/04/12 10:13:49;;;;;;;7.68;4.07;;;;;;;45.72;1.59;99351.03;5012917;28;20046;-74
2023/04/12 10:16:16;;;;;;;7.10;3.55;;;;;;;45.08;2.09;99332.41;5012918;28;20145;-74
2023/04/12 10:18:42;;;;;;;13.48;4.68;;;;;;;46.15;1.89;99344.31;4995302;28;20107;-74
2023/04/12 10:21:09;;;;;;;8.52;3.75;;;;;;;43.94;2.30;99337.59;5013956;28;20133;-79
2023/04/12 10:23:48;;;;;;;8.85;3.95;;;;;;;44.29;2.77;99337.91;5018313;28;20058;-75
2023/04/12 10:26:16;;;;;;;4.20;3.53;;;;;;;44.80;2.37;99329.44;4980947;28;20547;-78
2023/04/12 10:28:46;;;;;;;5.65;3.35;;;;;;;45.74;1.70;99332.63;5013010;28;20145;-76
2023/04/12 10:31:31;;;;;;;9.77;4.40;;;;;;;45.17;2.20;99321.63;4996313;28;20407;-76
2023/04/12 10:34:01;;;;;;;8.60;3.70;;;;;;;44.73;1.78;99353.44;4980611;28;20148;-76
2023/04/12 10:36:52;;;;;;;11.35;4.80;;;;;;;40.28;3.10;99316.56;4996652;28;20041;-76
2023/04/12 10:39:18;;;;;;;9.60;4.18;;;;;;;40.22;3.94;99302.09;5012613;28;20052;-76
2023/04/12 10:42:24;;;;;;;6.97;4.00;;;;;;;41.96;2.97;99307.34;4980097;28;20053;-76
2023/04/12 10:45:23;;;;;;;15.27;4.28;;;;;;;41.68;3.28;99304.84;4957478;28;20054;-76
2023/04/12 10:47:48;;;;;;;8.20;3.97;;;;;;;43.08;2.67;99309.03;4939433;28;20418;-77
2023/04/12 10:50:34;;;;;;;8.43;3.90;;;;;;;45.06;2.12;99298.34;4940534;28;20046;-77
2023/04/12 10:53:11;;;;;;;8.80;3.65;;;;;;;45.58;2.23;99301.31;4972274;28;20141;-74
2023/04/12 10:55:41;;;;;;;5.25;3.70;;;;;;;45.74;1.98;99296.13;4939919;28;20067;-74
2023/04/12 10:58:08;;;;;;;3.83;3.38;;;;;;;46.22;1.67;99288.16;4972291;28;20624;-74
2023/04/12 11:00:55;;;;;;;8.07;3.63;;;;;;;47.48;1.34;99276.44;4954083;28;20057;-74
2023/04/12 11:03:22;;;;;;;6.57;3.97;;;;;;;47.99;1.30;99272.88;4994489;28;20042;-74
2023/04/12 11:05:59;;;;;;;4.95;3.60;;;;;;;48.84;0.60;99273.56;5010502;28;20057;-74
2023/04/12 11:08:46;;;;;;;6.45;3.92;;;;;;;48.39;1.04;99271.28;4994444;28;20483;-74
2023/04/12 11:11:21;;;;;;;15.50;4.38;;;;;;;47.45;1.28;99274.47;4994113;28;20148;-74
2023/04/12 11:13:47;;;;;;;9.98;4.10;;;;;;;46.66;1.36;99257.53;4994123;28;20137;-74
2023/04/12 11:16:13;;;;;;;13.48;4.35;;;;;;;46.42;1.58;99249.97;4970264;28;20613;-74
2023/04/12 11:18:39;;;;;;;16.42;4.00;;;;;;;46.06;1.67;99248.41;4995587;28;20042;-73
2023/04/12 11:21:06;;;;;;;7.15;3.95;;;;;;;44.30;2.28;99244.31;4995639;28;20049;-73
2023/04/12 11:23:35;;;;;;;5.93;3.72;;;;;;;43.09;2.62;99249.13;4995389;28;20072;-73
2023/04/12 11:26:02;;;;;;;8.95;3.92;;;;;;;41.38;3.08;99231.38;4995595;28;20172;-73
2023/04/12 11:28:30;;;;;;;6.68;3.75;;;;;;;41.28;2.95;99246.75;4995543;28;20492;-73
2023/04/12 11:30:57;;;;;;;8.48;3.78;;;;;;;38.53;3.84;99249.38;4979534;28;20088;-73
2023/04/12 11:33:36;;;;;;;8.27;3.85;;;;;;;35.09;5.47;99230.06;4995173;28;20065;-71